sensor_id;sensor_type;location;lat;lon;timestamp;P1;durP1;ratioP1;P2;durP2;ratioP2
18473;SDS011;30265;52.408;13.500;2023-07-30T00:08:55;10.90;;;6.22;;
18473;SDS011;30265;52.408;13.500;2023-07-30T00:19:17;10.63;;;6.20;;
18473;SDS011;30265;52.408;13.500;2023-07-30T00:29:39;9.95;;;6.47;;
18473;SDS011;30265;52.408;13.500;2023-07-30T00:40:03;9.88;;;6.45;;
18473;SDS011;30265;52.408;13.500;2023-07-30T00:50:26;11.38;;;6.47;;
18473;SDS011;30265;52.408;13.500;2023-07-30T01:00:49;9.45;;;6.65;;
18473;SDS011;30265;52.408;13.500;2023-07-30T01:11:12;12.00;;;6.20;;
18473;SDS011;30265;52.408;13.500;2023-07-30T01:21:36;9.50;;;6.13;;
18473;SDS011;30265;52.408;13.500;2023-07-30T01:32:00;12.00;;;5.95;;
18473;SDS011;30265;52.408;13.500;2023-07-30T01:42:29;13.73;;;7.22;;
18473;SDS011;30265;52.408;13.500;2023-07-30T02:03:14;12.63;;;7.30;;
18473;SDS011;30265;52.408;13.500;2023-07-30T02:13:36;13.07;;;6.82;;
18473;SDS011;30265;52.408;13.500;2023-07-30T02:23:59;10.43;;;6.75;;
18473;SDS011;30265;52.408;13.500;2023-07-30T02:34:21;13.80;;;7.45;;
18473;SDS011;30265;52.408;13.500;2023-07-30T02:44:44;12.20;;;7.90;;
18473;SDS011;30265;52.408;13.500;2023-07-30T02:55:06;15.93;;;9.32;;
18473;SDS011;30265;52.408;13.500;2023-07-30T03:05:29;12.05;;;7.53;;
18473;SDS011;30265;52.408;13.500;2023-07-30T03:15:51;12.43;;;7.70;;
18473;SDS011;30265;52.408;13.500;2023-07-30T03:26:14;14.73;;;8.38;;
18473;SDS011;30265;52.408;13.500;2023-07-30T03:36:36;13.95;;;8.40;;
18473;SDS011;30265;52.408;13.500;2023-07-30T03:46:59;18.92;;;9.52;;
18473;SDS011;30265;52.408;13.500;2023-07-30T03:57:20;14.20;;;8.70;;
18473;SDS011;30265;52.408;13.500;2023-07-30T04:07:43;16.30;;;9.90;;
18473;SDS011;30265;52.408;13.500;2023-07-30T04:18:05;14.13;;;10.07;;
18473;SDS011;30265;52.408;13.500;2023-07-30T04:28:29;16.50;;;9.73;;
18473;SDS011;30265;52.408;13.500;2023-07-30T04:38:51;13.60;;;10.13;;
18473;SDS011;30265;52.408;13.500;2023-07-30T04:49:17;14.37;;;9.23;;
18473;SDS011;30265;52.408;13.500;2023-07-30T04:59:40;13.85;;;9.27;;
18473;SDS011;30265;52.408;13.500;2023-07-30T05:10:03;11.38;;;7.85;;
18473;SDS011;30265;52.408;13.500;2023-07-30T05:20:30;9.52;;;6.97;;
18473;SDS011;30265;52.408;13.500;2023-07-30T05:30:53;8.05;;;6.30;;
18473;SDS011;30265;52.408;13.500;2023-07-30T05:41:15;7.90;;;6.00;;
18473;SDS011;30265;52.408;13.500;2023-07-30T05:51:37;7.70;;;5.45;;
18473;SDS011;30265;52.408;13.500;2023-07-30T06:02:01;6.90;;;5.00;;
18473;SDS011;30265;52.408;13.500;2023-07-30T06:12:25;7.15;;;4.85;;
18473;SDS011;30265;52.408;13.500;2023-07-30T06:22:47;7.70;;;5.03;;
18473;SDS011;30265;52.408;13.500;2023-07-30T06:33:10;6.20;;;5.00;;
18473;SDS011;30265;52.408;13.500;2023-07-30T06:43:32;7.18;;;5.03;;
18473;SDS011;30265;52.408;13.500;2023-07-30T06:53:55;8.05;;;5.70;;
18473;SDS011;30265;52.408;13.500;2023-07-30T07:04:17;7.40;;;5.18;;
18473;SDS011;30265;52.408;13.500;2023-07-30T07:14:41;7.43;;;5.57;;
18473;SDS011;30265;52.408;13.500;2023-07-30T07:25:03;6.17;;;4.80;;
18473;SDS011;30265;52.408;13.500;2023-07-30T07:35:27;6.53;;;4.20;;
18473;SDS011;30265;52.408;13.500;2023-07-30T07:45:48;8.73;;;3.93;;
18473;SDS011;30265;52.408;13.500;2023-07-30T07:56:11;4.70;;;4.05;;
18473;SDS011;30265;52.408;13.500;2023-07-30T08:06:33;6.13;;;3.70;;
18473;SDS011;30265;52.408;13.500;2023-07-30T08:16:56;12.45;;;4.82;;
18473;SDS011;30265;52.408;13.500;2023-07-30T08:27:18;7.93;;;2.87;;
18473;SDS011;30265;52.408;13.500;2023-07-30T08:37:41;4.07;;;2.63;;
18473;SDS011;30265;52.408;13.500;2023-07-30T08:48:03;4.32;;;3.00;;
18473;SDS011;30265;52.408;13.500;2023-07-30T08:58:31;6.25;;;2.90;;
18473;SDS011;30265;52.408;13.500;2023-07-30T09:08:54;5.32;;;2.72;;
18473;SDS011;30265;52.408;13.500;2023-07-30T09:19:18;6.55;;;3.20;;
18473;SDS011;30265;52.408;13.500;2023-07-30T09:29:42;2.67;;;1.95;;
18473;SDS011;30265;52.408;13.500;2023-07-30T09:40:14;4.10;;;2.70;;
18473;SDS011;30265;52.408;13.500;2023-07-30T09:50:38;3.95;;;2.53;;
18473;SDS011;30265;52.408;13.500;2023-07-30T10:01:01;5.00;;;2.40;;
18473;SDS011;30265;52.408;13.500;2023-07-30T10:11:26;6.88;;;2.58;;
18473;SDS011;30265;52.408;13.500;2023-07-30T10:32:12;4.53;;;2.30;;
18473;SDS011;30265;52.408;13.500;2023-07-30T10:42:35;3.38;;;2.08;;
18473;SDS011;30265;52.408;13.500;2023-07-30T10:52:56;5.65;;;2.28;;
18473;SDS011;30265;52.408;13.500;2023-07-30T11:03:22;3.55;;;2.08;;
18473;SDS011;30265;52.408;13.500;2023-07-30T11:13:47;5.47;;;2.30;;
18473;SDS011;30265;52.408;13.500;2023-07-30T11:24:10;7.30;;;2.30;;
18473;SDS011;30265;52.408;13.500;2023-07-30T11:34:32;7.53;;;2.28;;
18473;SDS011;30265;52.408;13.500;2023-07-30T11:45:01;9.70;;;2.80;;
18473;SDS011;30265;52.408;13.500;2023-07-30T11:55:38;2.85;;;1.83;;
18473;SDS011;30265;52.408;13.500;2023-07-30T12:06:05;4.90;;;2.10;;
18473;SDS011;30265;52.408;13.500;2023-07-30T12:16:27;6.05;;;2.30;;
18473;SDS011;30265;52.408;13.500;2023-07-30T12:26:50;4.23;;;2.23;;
18473;SDS011;30265;52.408;13.500;2023-07-30T12:37:15;5.55;;;2.28;;
18473;SDS011;30265;52.408;13.500;2023-07-30T12:47:38;5.17;;;1.73;;
18473;SDS011;30265;52.408;13.500;2023-07-30T12:58:00;7.35;;;2.55;;
18473;SDS011;30265;52.408;13.500;2023-07-30T13:08:23;6.33;;;2.40;;
18473;SDS011;30265;52.408;13.500;2023-07-30T13:18:44;4.75;;;2.78;;
18473;SDS011;30265;52.408;13.500;2023-07-30T13:29:08;4.87;;;2.57;;
18473;SDS011;30265;52.408;13.500;2023-07-30T13:39:30;7.07;;;2.83;;
18473;SDS011;30265;52.408;13.500;2023-07-30T13:49:53;4.00;;;2.13;;
18473;SDS011;30265;52.408;13.500;2023-07-30T14:00:15;4.68;;;2.75;;
18473;SDS011;30265;52.408;13.500;2023-07-30T14:10:38;4.15;;;2.28;;
18473;SDS011;30265;52.408;13.500;2023-07-30T14:20:59;4.07;;;2.13;;
18473;SDS011;30265;52.408;13.500;2023-07-30T14:31:23;4.80;;;1.70;;
18473;SDS011;30265;52.408;13.500;2023-07-30T14:41:45;7.20;;;1.53;;
18473;SDS011;30265;52.408;13.500;2023-07-30T14:52:11;4.28;;;1.60;;
18473;SDS011;30265;52.408;13.500;2023-07-30T15:02:44;5.68;;;1.80;;
18473;SDS011;30265;52.408;13.500;2023-07-30T15:13:07;4.55;;;2.83;;
18473;SDS011;30265;52.408;13.500;2023-07-30T15:23:29;7.75;;;2.60;;
18473;SDS011;30265;52.408;13.500;2023-07-30T15:33:52;6.45;;;2.67;;
18473;SDS011;30265;52.408;13.500;2023-07-30T15:44:14;7.60;;;2.78;;
18473;SDS011;30265;52.408;13.500;2023-07-30T15:54:37;6.20;;;2.78;;
18473;SDS011;30265;52.408;13.500;2023-07-30T16:04:59;4.53;;;2.57;;
18473;SDS011;30265;52.408;13.500;2023-07-30T16:15:22;3.90;;;2.80;;
18473;SDS011;30265;52.408;13.500;2023-07-30T16:25:46;3.25;;;1.92;;
18473;SDS011;30265;52.408;13.500;2023-07-30T16:36:09;4.72;;;2.25;;
18473;SDS011;30265;52.408;13.500;2023-07-30T16:46:31;3.00;;;1.90;;
18473;SDS011;30265;52.408;13.500;2023-07-30T16:56:54;5.38;;;1.63;;
18473;SDS011;30265;52.408;13.500;2023-07-30T17:07:16;3.77;;;1.67;;
18473;SDS011;30265;52.408;13.500;2023-07-30T17:17:38;3.50;;;1.63;;
18473;SDS011;30265;52.408;13.500;2023-07-30T17:38:25;2.83;;;1.48;;
18473;SDS011;30265;52.408;13.500;2023-07-30T17:59:12;7.65;;;2.03;;
18473;SDS011;30265;52.408;13.500;2023-07-30T18:09:34;3.93;;;1.87;;
18473;SDS011;30265;52.408;13.500;2023-07-30T18:19:57;3.92;;;2.08;;
18473;SDS011;30265;52.408;13.500;2023-07-30T18:30:19;3.47;;;2.30;;
18473;SDS011;30265;52.408;13.500;2023-07-30T18:40:42;4.57;;;2.80;;
18473;SDS011;30265;52.408;13.500;2023-07-30T18:51:04;6.43;;;2.67;;
18473;SDS011;30265;52.408;13.500;2023-07-30T19:01:27;3.97;;;2.42;;
18473;SDS011;30265;52.408;13.500;2023-07-30T19:11:49;5.32;;;2.80;;
18473;SDS011;30265;52.408;13.500;2023-07-30T19:22:12;5.45;;;2.97;;
18473;SDS011;30265;52.408;13.500;2023-07-30T19:32:35;7.43;;;2.80;;
18473;SDS011;30265;52.408;13.500;2023-07-30T19:42:58;10.70;;;3.30;;
18473;SDS011;30265;52.408;13.500;2023-07-30T19:53:21;6.78;;;3.03;;
18473;SDS011;30265;52.408;13.500;2023-07-30T20:03:45;7.40;;;3.28;;
18473;SDS011;30265;52.408;13.500;2023-07-30T20:14:06;8.68;;;4.63;;
18473;SDS011;30265;52.408;13.500;2023-07-30T20:24:29;13.18;;;4.65;;
18473;SDS011;30265;52.408;13.500;2023-07-30T20:34:51;12.27;;;4.97;;
18473;SDS011;30265;52.408;13.500;2023-07-30T20:45:14;7.22;;;4.45;;
18473;SDS011;30265;52.408;13.500;2023-07-30T20:55:36;9.40;;;4.72;;
18473;SDS011;30265;52.408;13.500;2023-07-30T21:05:58;10.35;;;4.80;;
18473;SDS011;30265;52.408;13.500;2023-07-30T21:16:20;13.93;;;5.45;;
18473;SDS011;30265;52.408;13.500;2023-07-30T21:26:43;9.98;;;5.43;;
18473;SDS011;30265;52.408;13.500;2023-07-30T21:37:05;21.63;;;5.32;;
18473;SDS011;30265;52.408;13.500;2023-07-30T21:47:29;9.57;;;4.82;;
18473;SDS011;30265;52.408;13.500;2023-07-30T21:57:50;9.95;;;3.88;;
18473;SDS011;30265;52.408;13.500;2023-07-30T22:08:13;8.35;;;4.18;;
18473;SDS011;30265;52.408;13.500;2023-07-30T22:18:35;6.28;;;3.42;;
18473;SDS011;30265;52.408;13.500;2023-07-30T22:29:01;7.27;;;2.90;;
18473;SDS011;30265;52.408;13.500;2023-07-30T22:39:23;3.70;;;2.10;;
18473;SDS011;30265;52.408;13.500;2023-07-30T22:49:46;5.13;;;2.22;;
18473;SDS011;30265;52.408;13.500;2023-07-30T23:00:08;5.60;;;2.63;;
18473;SDS011;30265;52.408;13.500;2023-07-30T23:10:31;5.03;;;2.67;;
18473;SDS011;30265;52.408;13.500;2023-07-30T23:20:53;3.72;;;2.20;;
18473;SDS011;30265;52.408;13.500;2023-07-30T23:31:16;4.03;;;1.60;;
18473;SDS011;30265;52.408;13.500;2023-07-30T23:41:38;6.82;;;2.47;;
18473;SDS011;30265;52.408;13.500;2023-07-30T23:52:00;5.45;;;2.20;;
